Time;durP1;ratioP1;P1;durP2;ratioP2;P2;SDS_P1;SDS_P2;PMS_P1;PMS_P2;Temp;Humidity;BMP_temperature;BMP_pressure;BME280_temperature;BME280_humidity;BME280_pressure;Samples;Min_cycle;Max_cycle;Signal;HPM_P1;HPM_P2
2021/01/19 00:02:02;;;;;;;203.02;76.30;;;;;;;-6.62;96.06;98146.41;5035872;28;20061;-75
2021/01/19 00:04:28;;;;;;;207.00;77.05;;;;;;;-6.51;95.34;98154.88;5053849;28;20100;-74
2021/01/19 00:06:54;;;;;;;202.30;74.97;;;;;;;-6.51;95.38;98154.88;5054943;28;20083;-74
2021/01/19 00:09:20;;;;;;;193.18;74.03;;;;;;;-6.51;95.73;98151.47;5036388;28;20133;-74
2021/01/19 00:11:46;;;;;;;203.73;75.78;;;;;;;-6.51;95.60;98152.31;5053910;28;20075;-76
2021/01/19 00:14:12;;;;;;;199.15;76.72;;;;;;;-6.44;95.43;98149.75;5036242;28;20457;-75
2021/01/19 00:16:38;;;;;;;185.93;70.20;;;;;;;-6.44;95.57;98154.84;5053791;28;20115;-76
2021/01/19 00:19:04;;;;;;;208.85;79.32;;;;;;;-6.36;95.40;98142.94;5035960;28;20049;-75
2021/01/19 00:21:30;;;;;;;215.75;77.88;;;;;;;-6.41;95.53;98129.34;5036236;28;20373;-75
2021/01/19 00:23:56;;;;;;;198.50;75.65;;;;;;;-6.39;96.04;98132.75;5054059;28;20053;-74
2021/01/19 00:26:22;;;;;;;209.90;76.53;;;;;;;-6.39;96.22;98128.50;5035842;28;20048;-74
2021/01/19 00:28:48;;;;;;;201.55;77.32;;;;;;;-6.35;95.73;98122.53;5036185;28;20045;-75
2021/01/19 00:31:14;;;;;;;192.27;74.18;;;;;;;-6.38;95.31;98109.78;5054024;28;20473;-74
2021/01/19 00:33:40;;;;;;;190.43;75.50;;;;;;;-6.31;95.93;98123.38;5053810;28;20041;-74
2021/01/19 00:36:06;;;;;;;197.15;76.35;;;;;;;-6.36;95.48;98097.88;5035847;28;20047;-75
2021/01/19 00:38:33;;;;;;;205.02;75.93;;;;;;;-6.22;95.64;98115.69;5036109;28;20428;-75
2021/01/19 00:40:59;;;;;;;175.38;67.85;;;;;;;-6.43;96.05;98090.25;5035292;28;20044;-74
2021/01/19 00:43:25;;;;;;;191.35;72.72;;;;;;;-6.28;96.92;98114.84;5053638;28;20094;-75
2021/01/19 00:45:50;;;;;;;188.23;71.78;;;;;;;-6.20;96.97;98119.06;5036153;28;20182;-76
2021/01/19 00:48:17;;;;;;;194.80;71.15;;;;;;;-6.14;97.16;98121.59;5035526;28;20454;-75
2021/01/19 00:50:44;;;;;;;168.23;64.28;;;;;;;-6.07;96.10;98117.31;5053271;28;20070;-75
2021/01/19 00:53:09;;;;;;;175.38;70.32;;;;;;;-6.14;96.39;98090.13;5035559;28;20075;-75
2021/01/19 00:55:36;;;;;;;167.85;66.13;;;;;;;-6.08;96.80;98110.50;5053127;28;20445;-76
2021/01/19 00:58:02;;;;;;;151.75;57.00;;;;;;;-6.10;97.17;98098.59;5053139;28;20083;-75
2021/01/19 01:00:28;;;;;;;173.80;69.15;;;;;;;-6.14;97.60;98088.41;5035795;28;20487;-76
2021/01/19 01:02:54;;;;;;;183.25;68.45;;;;;;;-5.96;96.98;98101.91;5053056;28;20408;-76
2021/01/19 01:05:20;;;;;;;172.23;65.25;;;;;;;-5.89;97.59;98113.78;5052860;28;20052;-76
2021/01/19 01:07:46;;;;;;;180.57;65.75;;;;;;;-5.89;97.71;98103.56;5052872;28;20069;-76
2021/01/19 01:10:15;;;;;;;166.52;63.72;;;;;;;-5.95;98.42;98084.03;5052781;28;20041;-76
2021/01/19 01:12:45;;;;;;;157.70;59.13;;;;;;;-5.79;98.33;98110.31;5053502;28;20079;-75
2021/01/19 01:15:16;;;;;;;143.52;56.13;;;;;;;-5.82;99.87;98104.41;5035097;28;20118;-75
2021/01/19 01:17:42;;;;;;;129.30;48.78;;;;;;;-5.80;100.00;98097.56;5035605;28;20132;-75
2021/01/19 01:20:10;;;;;;;111.55;42.17;;;;;;;-5.62;100.00;98088.97;5034756;28;20516;-74
2021/01/19 01:22:46;;;;;;;107.05;40.17;;;;;;;-5.74;100.00;98072.00;5053094;28;20083;-75
2021/01/19 01:25:14;;;;;;;111.10;42.33;;;;;;;-5.55;100.00;98092.31;5052562;28;20049;-75
2021/01/19 01:27:42;;;;;;;108.07;40.22;;;;;;;-5.49;100.00;98087.16;5052588;28;20136;-73
2021/01/19 01:30:10;;;;;;;114.63;45.05;;;;;;;-5.49;100.00;98082.03;5052522;28;20546;-75
2021/01/19 01:32:41;;;;;;;94.97;37.38;;;;;;;-5.43;100.00;98075.16;5035750;28;20118;-75
2021/01/19 01:35:10;;;;;;;92.18;35.53;;;;;;;-5.33;100.00;98075.09;5053081;28;20049;-73
2021/01/19 01:37:43;;;;;;;99.30;37.90;;;;;;;-5.16;100.00;98075.78;5035222;28;20060;-76
2021/01/19 01:40:11;;;;;;;107.40;42.47;;;;;;;-5.23;100.00;98069.06;5052820;28;20120;-75
2021/01/19 01:42:37;;;;;;;90.35;36.25;;;;;;;-5.26;100.00;98062.25;5034744;28;20419;-74
2021/01/19 01:45:04;;;;;;;104.25;38.97;;;;;;;-5.34;100.00;98035.09;5052851;28;20041;-76
2021/01/19 01:47:31;;;;;;;114.65;41.90;;;;;;;-5.25;100.00;98051.19;5052587;28;20041;-76
2021/01/19 01:49:57;;;;;;;101.85;39.42;;;;;;;-5.07;100.00;98060.38;5052415;28;20496;-76
2021/01/19 01:52:27;;;;;;;107.45;43.30;;;;;;;-5.03;100.00;98053.53;5054721;28;20041;-74
2021/01/19 01:54:53;;;;;;;100.72;41.22;;;;;;;-5.19;100.00;98042.59;5039083;28;20057;-75
2021/01/19 01:57:20;;;;;;;94.78;37.53;;;;;;;-5.14;100.00;98040.88;5038866;28;20187;-76
2021/01/19 01:59:50;;;;;;;79.57;32.60;;;;;;;-5.09;100.00;98044.22;5038259;28;20153;-75
2021/01/19 02:02:17;;;;;;;85.00;34.72;;;;;;;-4.96;100.00;98049.19;5038499;28;20102;-75
2021/01/19 02:04:43;;;;;;;86.07;34.47;;;;;;;-4.89;100.00;98050.84;5056954;28;20053;-76
2021/01/19 02:07:25;;;;;;;89.85;37.10;;;;;;;-4.79;100.00;98049.03;5022171;28;20551;-74
2021/01/19 02:10:32;;;;;;;75.75;29.55;;;;;;;-4.76;100.00;98047.28;5056607;28;20109;-75
2021/01/19 02:13:13;;;;;;;92.70;37.78;;;;;;;-4.62;100.00;98041.16;5035706;28;20111;-76
2021/01/19 02:15:52;;;;;;;90.22;36.70;;;;;;;-4.67;100.00;98036.94;5037778;28;20049;-73
2021/01/19 02:18:45;;;;;;;71.90;28.35;;;;;;;-4.75;100.00;98043.88;5037904;28;20491;-76
2021/01/19 02:21:39;;;;;;;66.40;26.98;;;;;;;-4.65;100.00;98042.03;5038512;28;20112;-75
2021/01/19 02:24:50;;;;;;;68.80;31.25;;;;;;;-4.52;100.00;98038.47;5056150;28;20463;-75
2021/01/19 02:27:52;;;;;;;54.85;21.88;;;;;;;-4.52;100.00;98042.75;5056008;28;20076;-75
2021/01/19 02:30:26;;;;;;;61.25;26.10;;;;;;;-4.57;100.00;98034.28;5055684;28;20044;-74
2021/01/19 02:33:17;;;;;;;55.78;24.13;;;;;;;-4.53;100.00;98030.81;5055892;28;20060;-75
2021/01/19 02:36:01;;;;;;;60.47;26.77;;;;;;;-4.46;100.00;98035.00;5055824;28;20064;-75
2021/01/19 02:38:53;;;;;;;62.58;30.50;;;;;;;-4.46;100.00;98009.44;5055739;28;20071;-75
2021/01/19 02:41:20;;;;;;;61.20;28.80;;;;;;;-4.26;100.00;98039.00;5038205;28;20044;-75
2021/01/19 02:43:56;;;;;;;62.22;27.85;;;;;;;-4.33;100.00;98031.41;5037512;28;20041;-76
2021/01/19 02:46:25;;;;;;;71.35;29.95;;;;;;;-4.33;100.00;98028.84;5037794;28;20119;-76
2021/01/19 02:48:54;;;;;;;59.58;28.38;;;;;;;-4.40;100.00;98008.47;5055382;28;20056;-76
2021/01/19 02:51:24;;;;;;;58.15;25.48;;;;;;;-4.26;100.00;98018.53;5055364;28;20095;-75
2021/01/19 02:53:53;;;;;;;67.82;30.88;;;;;;;-4.04;100.00;98014.00;5055883;28;20041;-75
2021/01/19 02:56:59;;;;;;;58.70;24.63;;;;;;;-4.15;100.00;98021.81;5037814;28;20546;-74
2021/01/19 02:59:34;;;;;;;77.47;32.50;;;;;;;-4.20;100.00;97987.75;5055452;28;20045;-75
2021/01/19 03:02:10;;;;;;;57.10;23.95;;;;;;;-4.25;100.00;97984.41;5054979;28;20137;-75
2021/01/19 03:04:38;;;;;;;60.55;28.45;;;;;;;-3.94;100.00;98004.44;5036604;28;20063;-75
2021/01/19 03:07:09;;;;;;;57.55;25.25;;;;;;;-3.91;100.00;97986.47;5055214;28;20037;-75
2021/01/19 03:09:39;;;;;;;52.25;22.02;;;;;;;-3.77;100.00;98012.72;5037542;28;20049;-75
2021/01/19 03:12:12;;;;;;;61.92;25.90;;;;;;;-3.97;100.00;97975.47;5021735;28;20049;-75
2021/01/19 03:14:39;;;;;;;53.13;24.92;;;;;;;-3.84;100.00;98006.03;5055090;28;20045;-75
2021/01/19 03:17:09;;;;;;;55.75;24.63;;;;;;;-3.84;100.00;97995.78;5036677;28;20136;-75
2021/01/19 03:19:42;;;;;;;52.63;21.45;;;;;;;-3.81;100.00;97988.03;5055372;28;20053;-75
2021/01/19 03:22:10;;;;;;;60.60;27.50;;;;;;;-3.75;100.00;97999.88;5036707;28;20122;-75
2021/01/19 03:24:37;;;;;;;57.25;28.00;;;;;;;-3.67;100.00;97996.34;5054394;28;20049;-75
2021/01/19 03:27:05;;;;;;;46.80;20.42;;;;;;;-3.69;100.00;97995.53;5036971;28;20045;-75
2021/01/19 03:29:31;;;;;;;44.88;19.17;;;;;;;-3.77;100.00;97981.97;5036701;28;20059;-76
2021/01/19 03:31:57;;;;;;;50.63;24.90;;;;;;;-3.68;100.00;97986.13;5054329;28;20066;-75
2021/01/19 03:34:23;;;;;;;48.53;22.83;;;;;;;-3.57;100.00;97994.47;5036845;28;20112;-75
2021/01/19 03:36:49;;;;;;;48.65;23.88;;;;;;;-3.66;100.00;97985.25;5054463;28;20037;-75
2021/01/19 03:39:15;;;;;;;59.67;28.63;;;;;;;-3.58;100.00;97994.50;5054089;28;20056;-73
2021/01/19 03:41:41;;;;;;;53.05;24.42;;;;;;;-3.72;100.00;97962.28;5054965;28;20487;-75
2021/01/19 03:44:08;;;;;;;51.10;21.88;;;;;;;-3.60;100.00;97992.81;5055196;28;20392;-76
2021/01/19 03:46:34;;;;;;;52.38;22.20;;;;;;;-3.52;100.00;97981.59;5053016;28;20060;-75
2021/01/19 03:49:01;;;;;;;46.75;23.33;;;;;;;-3.76;100.00;97959.78;5053815;28;20049;-76
2021/01/19 03:51:27;;;;;;;52.03;23.13;;;;;;;-3.54;100.00;97985.91;5054506;28;20190;-75
2021/01/19 03:53:53;;;;;;;48.75;22.67;;;;;;;-3.51;100.00;97994.38;5054283;28;20421;-76
2021/01/19 03:56:20;;;;;;;49.22;24.55;;;;;;;-3.57;100.00;97962.88;5054773;28;20044;-76
2021/01/19 03:58:47;;;;;;;48.67;22.27;;;;;;;-3.44;100.00;97979.75;5019608;28;20051;-75
2021/01/19 04:01:14;;;;;;;46.42;22.15;;;;;;;-3.58;100.00;97971.44;5036454;28;20402;-75
2021/01/19 04:03:40;;;;;;;49.08;22.90;;;;;;;-3.64;100.00;97970.69;5054330;28;20041;-76
2021/01/19 04:06:07;;;;;;;51.72;23.08;;;;;;;-3.46;100.00;97991.72;5054037;28;20084;-76
2021/01/19 04:08:39;;;;;;;55.83;26.10;;;;;;;-3.50;100.00;97992.69;5036011;28;20049;-76
2021/01/19 04:11:06;;;;;;;45.70;20.17;;;;;;;-3.49;100.00;97991.78;5054240;28;20045;-76
2021/01/19 04:13:33;;;;;;;41.20;19.00;;;;;;;-3.51;100.00;97983.28;5054210;28;20129;-76
2021/01/19 04:15:59;;;;;;;55.85;25.63;;;;;;;-3.45;100.00;97990.88;5054152;28;20057;-76
2021/01/19 04:18:25;;;;;;;50.33;23.98;;;;;;;-3.50;100.00;97992.69;5053804;28;20415;-76
2021/01/19 04:20:52;;;;;;;56.67;25.08;;;;;;;-3.46;100.00;97984.91;5053780;28;20392;-76
2021/01/19 04:23:19;;;;;;;50.08;23.67;;;;;;;-3.40;100.00;97985.66;5053487;28;20522;-73
2021/01/19 04:25:48;;;;;;;62.05;28.42;;;;;;;-3.35;100.00;97984.72;5053380;28;20045;-76
2021/01/19 04:28:14;;;;;;;64.18;29.35;;;;;;;-3.34;100.00;97990.69;5053558;28;20052;-76
2021/01/19 04:30:41;;;;;;;50.60;24.83;;;;;;;-3.41;100.00;97989.97;5053652;28;20052;-74
2021/01/19 04:33:08;;;;;;;56.80;27.88;;;;;;;-3.50;100.00;97959.38;5053699;28;20045;-75
2021/01/19 04:35:35;;;;;;;48.92;24.27;;;;;;;-3.33;100.00;97988.09;5053009;28;20437;-75
2021/01/19 04:38:01;;;;;;;52.53;22.83;;;;;;;-3.38;100.00;97989.03;5036045;28;20047;-74
2021/01/19 04:40:27;;;;;;;47.72;22.60;;;;;;;-3.38;100.00;97999.28;5035695;28;20094;-75
2021/01/19 04:42:53;;;;;;;55.97;26.55;;;;;;;-3.44;100.00;97990.00;5053078;28;20049;-71
2021/01/19 04:45:21;;;;;;;47.22;21.83;;;;;;;-3.35;100.00;97988.97;5035804;28;20045;-72
2021/01/19 04:47:47;;;;;;;45.17;21.08;;;;;;;-3.31;100.00;97988.91;5052906;28;20087;-74
2021/01/19 04:50:14;;;;;;;46.45;22.17;;;;;;;-3.36;100.00;97992.44;5053614;28;20048;-73
2021/01/19 04:52:46;;;;;;;38.42;17.30;;;;;;;-3.50;100.00;97974.75;5035646;28;20053;-73
2021/01/19 04:55:22;;;;;;;44.28;23.27;;;;;;;-3.31;100.00;97998.31;5053085;28;20079;-74
2021/01/19 04:58:00;;;;;;;41.70;20.10;;;;;;;-3.51;100.00;97979.00;5035894;28;20075;-73
2021/01/19 05:00:36;;;;;;;52.30;25.50;;;;;;;-3.29;100.00;98000.00;5053085;28;20049;-73
2021/01/19 05:03:02;;;;;;;42.70;20.48;;;;;;;-3.24;100.00;97993.06;5036027;28;20416;-72
2021/01/19 05:05:37;;;;;;;44.10;22.58;;;;;;;-3.24;100.00;98003.31;5053132;28;20075;-72
2021/01/19 05:08:18;;;;;;;48.55;23.77;;;;;;;-3.18;100.00;97996.38;5052910;28;20045;-71
2021/01/19 05:11:02;;;;;;;54.35;25.05;;;;;;;-3.16;100.00;97989.53;5052903;28;20037;-71
2021/01/19 05:13:52;;;;;;;47.28;21.70;;;;;;;-3.35;100.00;97969.34;5046545;28;20053;-71
2021/01/19 05:16:27;;;;;;;40.22;18.88;;;;;;;-3.41;100.00;97969.47;5052784;28;20063;-70
2021/01/19 05:18:54;;;;;;;46.63;22.02;;;;;;;-3.24;100.00;97987.94;5035260;28;20354;-70
2021/01/19 05:21:21;;;;;;;50.28;24.20;;;;;;;-3.17;100.00;97987.81;5053027;28;20435;-70
2021/01/19 05:23:48;;;;;;;49.33;22.52;;;;;;;-3.21;100.00;97997.31;5052426;28;20412;-71
2021/01/19 05:26:16;;;;;;;37.50;18.48;;;;;;;-3.22;100.00;97993.03;5053284;28;20075;-70
2021/01/19 05:28:49;;;;;;;54.15;25.65;;;;;;;-3.17;100.00;97987.81;5056620;28;20053;-71
2021/01/19 05:31:15;;;;;;;50.42;25.27;;;;;;;-3.13;100.00;97986.91;5039306;28;20048;-71
2021/01/19 05:33:58;;;;;;;53.63;24.20;;;;;;;-3.21;100.00;97984.47;5056623;28;20037;-72
2021/01/19 05:36:31;;;;;;;45.28;19.25;;;;;;;-3.20;100.00;97987.88;5056387;28;20067;-72
2021/01/19 05:38:59;;;;;;;49.75;24.55;;;;;;;-3.37;100.00;97958.25;5039141;28;20522;-69
2021/01/19 05:41:32;;;;;;;46.78;20.85;;;;;;;-3.18;100.00;97988.69;5056137;28;20048;-70
2021/01/19 05:44:19;;;;;;;50.08;22.50;;;;;;;-3.21;100.00;97986.19;5056198;28;20392;-72
2021/01/19 05:46:59;;;;;;;54.83;23.42;;;;;;;-3.14;100.00;97988.59;5056809;28;20463;-71
2021/01/19 05:49:27;;;;;;;51.47;24.98;;;;;;;-3.29;100.00;97958.97;5056844;28;20091;-71
2021/01/19 05:52:05;;;;;;;55.28;25.35;;;;;;;-3.02;100.00;97990.09;5038443;28;20132;-70
2021/01/19 05:54:39;;;;;;;49.35;24.77;;;;;;;-3.02;100.00;97995.25;5038884;28;20049;-70
2021/01/19 05:57:13;;;;;;;57.55;26.58;;;;;;;-2.96;100.00;97996.84;5056276;28;20044;-72
2021/01/19 05:59:41;;;;;;;48.78;23.23;;;;;;;-3.00;100.00;97987.50;5056303;28;20368;-71
2021/01/19 06:02:13;;;;;;;61.45;28.35;;;;;;;-2.92;100.00;97993.34;5056504;28;20079;-71
2021/01/19 06:04:53;;;;;;;48.38;23.13;;;;;;;-3.10;100.00;97964.59;5056100;28;20067;-71
2021/01/19 06:07:21;;;;;;;52.72;23.58;;;;;;;-2.94;100.00;97984.84;5055769;28;20045;-71
2021/01/19 06:09:48;;;;;;;55.33;24.85;;;;;;;-2.97;100.00;97982.31;5055809;28;20116;-71
2021/01/19 06:12:15;;;;;;;55.63;26.63;;;;;;;-2.96;100.00;97982.31;5038383;28;20052;-71
2021/01/19 06:14:52;;;;;;;56.17;26.27;;;;;;;-2.91;100.00;97988.19;5055863;28;20041;-70
2021/01/19 06:17:21;;;;;;;51.85;24.02;;;;;;;-2.94;100.00;97979.72;5053813;28;20098;-70
2021/01/19 06:19:50;;;;;;;56.17;23.33;;;;;;;-2.85;100.00;97981.25;5056028;28;20056;-70
2021/01/19 06:22:19;;;;;;;46.20;22.63;;;;;;;-3.07;100.00;97961.16;5056051;28;20119;-70
2021/01/19 06:24:50;;;;;;;55.92;24.35;;;;;;;-3.00;100.00;97969.56;5056280;28;20083;-71
2021/01/19 06:27:23;;;;;;;56.28;27.40;;;;;;;-2.79;100.00;97988.84;5037728;28;20641;-71
2021/01/19 06:29:49;;;;;;;52.15;24.25;;;;;;;-2.77;100.00;97992.22;5055381;28;20052;-72
2021/01/19 06:32:18;;;;;;;52.70;23.95;;;;;;;-2.78;100.00;97990.50;5055540;28;20104;-72
2021/01/19 06:34:45;;;;;;;59.13;27.60;;;;;;;-2.71;100.00;97998.06;5055554;28;20041;-72
2021/01/19 06:37:27;;;;;;;52.13;25.02;;;;;;;-2.75;100.00;97991.31;5055645;28;20051;-72
2021/01/19 06:40:04;;;;;;;63.65;28.70;;;;;;;-2.78;100.00;97990.50;5020694;28;20040;-72
2021/01/19 06:42:34;;;;;;;59.38;26.52;;;;;;;-2.77;100.00;97997.34;5055938;28;20087;-70
2021/01/19 06:45:11;;;;;;;58.72;29.45;;;;;;;-2.69;100.00;97998.03;5055762;28;20199;-67
2021/01/19 06:47:47;;;;;;;68.45;29.85;;;;;;;-2.74;100.00;97994.72;5055076;28;20041;-72
2021/01/19 06:50:13;;;;;;;59.30;27.98;;;;;;;-2.71;100.00;98002.34;5056100;28;20045;-74
2021/01/19 06:52:41;;;;;;;62.42;31.30;;;;;;;-2.69;100.00;98000.59;5055628;28;20128;-73
2021/01/19 06:55:23;;;;;;;62.17;28.85;;;;;;;-2.70;100.00;97994.63;5055471;28;20509;-74
2021/01/19 06:58:27;;;;;;;57.20;25.13;;;;;;;-2.75;100.00;97973.34;5037868;28;20428;-74
2021/01/19 07:00:59;;;;;;;;;;;;;;;-2.57;100.00;97995.22;5056692;28;20146;-74
2021/01/19 07:03:25;;;;;;;63.05;27.50;;;;;;;-2.57;100.00;98000.34;5055083;28;20304;-69
2021/01/19 07:05:55;;;;;;;58.85;26.25;;;;;;;-2.61;100.00;98003.00;5055048;28;20037;-69
2021/01/19 07:08:21;;;;;;;63.78;27.95;;;;;;;-2.57;100.00;98002.91;5055239;28;20044;-71
2021/01/19 07:10:51;;;;;;;55.72;26.30;;;;;;;-2.53;100.00;97999.41;5055016;28;20130;-68
2021/01/19 07:13:22;;;;;;;75.63;32.58;;;;;;;-2.48;100.00;98006.19;5055425;28;20052;-69
2021/01/19 07:15:57;;;;;;;66.97;30.38;;;;;;;-2.49;100.00;98013.03;5037037;28;20049;-71
2021/01/19 07:18:51;;;;;;;69.22;30.75;;;;;;;-2.38;100.00;97999.97;5055180;28;20041;-72
2021/01/19 07:21:19;;;;;;;74.20;32.15;;;;;;;-2.38;100.00;98002.53;5054639;28;20132;-71
2021/01/19 07:23:48;;;;;;;67.75;27.10;;;;;;;-2.38;100.00;98002.53;5055283;28;20072;-69
2021/01/19 07:26:30;;;;;;;75.57;32.30;;;;;;;-2.29;100.00;97997.19;5055319;28;20159;-70
2021/01/19 07:28:56;;;;;;;;;;;;;;;-2.26;100.00;97999.69;5020843;28;20052;-72
2021/01/19 07:31:23;;;;;;;58.17;25.25;;;;;;;-2.43;100.00;97971.81;5054565;28;19928;-70
2021/01/19 07:33:55;;;;;;;67.90;28.15;;;;;;;-2.29;100.00;97986.94;5054331;28;20069;-71
2021/01/19 07:36:24;;;;;;;71.28;29.52;;;;;;;-2.16;100.00;97990.09;5055492;28;20041;-70
2021/01/19 07:38:50;;;;;;;68.43;29.88;;;;;;;-2.10;99.54;97984.81;5054703;28;20399;-72
2021/01/19 07:41:34;;;;;;;76.70;33.95;;;;;;;-2.26;99.84;97968.91;5054290;28;20191;-70
2021/01/19 07:44:02;;;;;;;80.57;35.33;;;;;;;-2.24;99.80;97977.44;5037269;28;20045;-72
2021/01/19 07:46:29;;;;;;;68.28;31.17;;;;;;;-2.09;100.00;97998.50;5054757;28;20045;-72
2021/01/19 07:48:59;;;;;;;71.20;33.08;;;;;;;-1.97;99.11;97995.66;5054159;28;20059;-72
2021/01/19 07:51:26;;;;;;;73.68;32.47;;;;;;;-1.91;98.43;97995.53;5054061;28;20462;-71
2021/01/19 07:53:54;;;;;;;70.60;31.55;;;;;;;-1.92;98.93;97993.00;5036726;28;20385;-72
2021/01/19 07:56:26;;;;;;;65.35;27.70;;;;;;;-2.05;99.49;97987.28;5054066;28;20045;-71
2021/01/19 07:58:53;;;;;;;74.78;32.80;;;;;;;-1.80;98.38;97988.41;5054850;28;20049;-71
2021/01/19 08:01:35;;;;;;;72.22;32.15;;;;;;;-1.77;97.34;97981.53;5054582;28;20124;-72
2021/01/19 08:04:37;;;;;;;64.68;27.75;;;;;;;-1.77;97.82;97984.94;5054475;28;20052;-70
2021/01/19 08:07:21;;;;;;;78.03;32.83;;;;;;;-1.72;97.62;97988.22;5037054;28;20053;-73
2021/01/19 08:09:47;;;;;;;74.35;32.03;;;;;;;-1.62;96.76;97991.44;5059380;28;20048;-71
2021/01/19 08:12:15;;;;;;;67.13;29.83;;;;;;;-1.67;97.85;97982.97;5067750;28;20045;-73
2021/01/19 08:14:46;;;;;;;80.97;34.38;;;;;;;-1.57;96.57;97974.16;5069389;28;20041;-72
2021/01/19 08:17:13;;;;;;;78.43;35.22;;;;;;;-1.70;97.52;97976.19;5050441;28;20049;-72
2021/01/19 08:19:46;;;;;;;65.95;27.85;;;;;;;-1.70;97.47;97968.50;5037297;28;20064;-71
2021/01/19 08:22:22;;;;;;;73.97;31.38;;;;;;;-1.65;98.56;97984.63;5055892;28;20040;-75
2021/01/19 08:24:59;;;;;;;74.35;31.90;;;;;;;-1.76;99.24;97967.78;5054860;28;20049;-74
2021/01/19 08:27:28;;;;;;;70.38;32.35;;;;;;;-1.67;98.46;97964.97;5072235;28;20037;-74
2021/01/19 08:29:54;;;;;;;69.55;32.20;;;;;;;-1.69;99.13;97980.44;5073390;28;20087;-73
2021/01/19 08:32:21;;;;;;;65.57;30.90;;;;;;;-1.77;99.71;97968.66;5061466;28;20045;-73
2021/01/19 08:34:48;;;;;;;65.85;28.60;;;;;;;-1.68;100.00;97989.84;5037074;28;20431;-73
2021/01/19 08:37:17;;;;;;;76.20;33.20;;;;;;;-1.68;100.00;97989.84;5055770;28;20045;-73
2021/01/19 08:39:53;;;;;;;80.45;34.60;;;;;;;-1.64;99.32;97964.91;5048053;28;20040;-73
2021/01/19 08:42:21;;;;;;;85.60;34.42;;;;;;;-1.37;98.00;97991.66;5071852;28;20037;-74
2021/01/19 08:45:00;;;;;;;78.55;35.03;;;;;;;-1.50;97.96;97973.13;5063503;28;20052;-73
2021/01/19 08:47:27;;;;;;;73.35;33.85;;;;;;;-1.49;98.58;97971.41;5066441;28;20084;-74
2021/01/19 08:49:54;;;;;;;63.30;28.85;;;;;;;-1.47;99.39;97996.19;5054303;28;20057;-75
2021/01/19 08:52:27;;;;;;;71.70;32.10;;;;;;;-1.42;99.62;98002.94;5069836;28;20041;-74
2021/01/19 08:54:53;;;;;;;83.03;36.70;;;;;;;-1.42;98.88;97984.94;5056108;28;20045;-75
2021/01/19 08:57:20;;;;;;;93.13;41.75;;;;;;;-1.18;97.95;97992.03;5056083;28;20047;-74
2021/01/19 08:59:50;;;;;;;80.72;35.53;;;;;;;-1.34;97.91;97983.03;5058771;28;20048;-76
2021/01/19 09:02:17;;;;;;;85.57;38.15;;;;;;;-1.25;98.63;97995.66;5053069;28;20056;-77
2021/01/19 09:04:45;;;;;;;67.28;28.85;;;;;;;-1.22;98.01;98011.03;5036564;28;20492;-76
2021/01/19 09:07:12;;;;;;;67.05;31.42;;;;;;;-1.37;97.16;97983.13;5037500;28;20132;-77
2021/01/19 09:09:46;;;;;;;78.55;36.65;;;;;;;-1.12;98.19;98007.31;5054070;28;20129;-77
2021/01/19 09:12:18;;;;;;;70.43;31.73;;;;;;;-1.21;98.03;98010.13;5035683;28;20045;-76
2021/01/19 09:14:52;;;;;;;73.95;34.67;;;;;;;-1.21;97.77;98001.56;5053156;28;20131;-75
2021/01/19 09:17:27;;;;;;;67.40;31.08;;;;;;;-1.22;98.31;98013.59;5054474;28;20145;-76
2021/01/19 09:20:07;;;;;;;67.63;32.50;;;;;;;-1.08;97.81;98014.06;5053792;28;20041;-76
2021/01/19 09:22:33;;;;;;;73.22;34.05;;;;;;;-1.20;97.78;97988.66;5035706;28;20376;-77
2021/01/19 09:24:59;;;;;;;78.50;34.50;;;;;;;-1.07;98.78;98012.34;5035041;28;20462;-77
2021/01/19 09:27:25;;;;;;;76.68;32.67;;;;;;;-1.28;98.32;97983.72;5053201;28;20056;-78
2021/01/19 09:30:05;;;;;;;67.55;31.45;;;;;;;-1.18;98.71;98001.50;5053204;28;20049;-78
2021/01/19 09:32:32;;;;;;;78.53;34.15;;;;;;;-1.25;100.00;98000.81;5052703;28;20484;-78
2021/01/19 09:35:01;;;;;;;74.43;29.67;;;;;;;-1.11;100.00;97998.72;5052593;28;20049;-78
2021/01/19 09:37:27;;;;;;;77.30;32.58;;;;;;;-1.15;100.00;97994.53;5052597;28;20053;-75
2021/01/19 09:39:53;;;;;;;75.72;35.63;;;;;;;-1.00;100.00;97995.03;5052485;28;20129;-74
2021/01/19 09:42:20;;;;;;;83.72;38.20;;;;;;;-1.19;100.00;97976.63;5053112;28;20150;-74
2021/01/19 09:44:47;;;;;;;69.82;29.55;;;;;;;-1.09;100.00;98001.25;5052381;28;20059;-74
2021/01/19 09:47:14;;;;;;;68.07;30.60;;;;;;;-1.12;100.00;97985.88;5053012;28;20067;-77
2021/01/19 09:49:42;;;;;;;94.15;39.03;;;;;;;-0.94;100.00;97985.41;5034897;28;20056;-78
2021/01/19 09:52:12;;;;;;;84.93;36.95;;;;;;;-0.83;99.63;97972.25;5034762;28;20480;-73
2021/01/19 09:54:39;;;;;;;76.38;32.55;;;;;;;-0.85;98.92;97979.19;5052947;28;20478;-76
2021/01/19 09:57:09;;;;;;;70.57;30.65;;;;;;;-0.78;98.28;97979.84;5052355;28;20479;-75
2021/01/19 09:59:40;;;;;;;68.45;30.63;;;;;;;-0.72;98.18;97965.06;5052371;28;20056;-77
2021/01/19 10:02:07;;;;;;;71.05;30.58;;;;;;;-0.72;98.19;97969.38;5034827;28;20079;-76
2021/01/19 10:04:33;;;;;;;70.75;34.80;;;;;;;-0.53;98.30;97958.56;5053117;28;20380;-76
2021/01/19 10:07:08;;;;;;;68.70;32.20;;;;;;;-0.53;100.00;97954.22;5035377;28;20049;-76
2021/01/19 10:09:35;;;;;;;64.82;29.90;;;;;;;-0.69;100.00;97950.44;5052916;28;20048;-77
2021/01/19 10:12:07;;;;;;;70.55;31.65;;;;;;;-0.59;100.00;97950.13;5018455;28;20083;-76
2021/01/19 10:14:40;;;;;;;71.05;31.15;;;;;;;-0.89;100.00;97931.25;5056797;28;20056;-76
2021/01/19 10:17:07;;;;;;;69.35;29.63;;;;;;;-0.78;100.00;97926.63;5056467;28;20198;-76
2021/01/19 10:19:36;;;;;;;73.20;31.42;;;;;;;-0.53;100.00;97931.06;5021771;28;20124;-76
2021/01/19 10:22:09;;;;;;;67.03;30.48;;;;;;;-0.38;100.00;97928.03;5038539;28;20048;-75
2021/01/19 10:24:36;;;;;;;66.45;29.88;;;;;;;-0.61;100.00;97915.00;5037973;28;20057;-75
2021/01/19 10:27:08;;;;;;;60.38;28.23;;;;;;;-0.81;100.00;97916.41;5038323;28;20049;-76
2021/01/19 10:29:42;;;;;;;61.55;28.00;;;;;;;-0.66;100.00;97912.56;5038040;28;20053;-75
2021/01/19 10:32:14;;;;;;;67.22;31.73;;;;;;;-0.77;100.00;97901.75;5039187;28;20049;-75
2021/01/19 10:34:50;;;;;;;62.25;31.20;;;;;;;-0.56;100.00;97918.28;5053616;28;20094;-75
2021/01/19 10:37:18;;;;;;;81.93;33.60;;;;;;;-0.31;100.00;97920.97;5056443;28;20073;-74
2021/01/19 10:39:59;;;;;;;67.35;29.85;;;;;;;-0.50;100.00;97906.97;5039005;28;20041;-75
2021/01/19 10:42:31;;;;;;;71.50;32.92;;;;;;;-0.54;100.00;97911.38;5039338;28;20049;-77
2021/01/19 10:45:00;;;;;;;58.92;27.95;;;;;;;-0.45;100.00;97862.16;5057391;28;20427;-77
2021/01/19 10:47:26;;;;;;;73.72;34.45;;;;;;;-0.23;100.00;97893.25;5038787;28;20052;-77
2021/01/19 10:49:53;;;;;;;65.43;30.77;;;;;;;-0.24;100.00;97877.84;5038805;28;20052;-76
2021/01/19 10:52:20;;;;;;;75.85;34.58;;;;;;;0.06;100.00;97895.78;5055750;28;20104;-74
2021/01/19 10:54:47;;;;;;;74.57;32.95;;;;;;;-0.28;100.00;97874.53;5056710;28;20075;-72
2021/01/19 10:57:13;;;;;;;67.82;29.40;;;;;;;-0.31;100.00;97892.66;5038000;28;20076;-76
2021/01/19 10:59:39;;;;;;;61.15;30.33;;;;;;;-0.39;100.00;97899.75;5037764;28;20049;-78
2021/01/19 11:02:05;;;;;;;68.80;29.05;;;;;;;-0.48;100.00;97900.88;5055888;28;20128;-76
2021/01/19 11:04:32;;;;;;;73.05;35.08;;;;;;;-0.39;100.00;97890.31;5056363;28;20381;-75
2021/01/19 11:07:01;;;;;;;79.68;35.38;;;;;;;-0.32;100.00;97885.81;5054805;28;20041;-75
2021/01/19 11:09:27;;;;;;;72.38;31.00;;;;;;;-0.68;100.00;97856.84;5054300;28;20049;-73
2021/01/19 11:11:53;;;;;;;72.03;34.05;;;;;;;-0.44;100.00;97887.00;5020611;28;20045;-76
2021/01/19 11:14:19;;;;;;;74.65;31.20;;;;;;;-0.55;100.00;97883.94;5054777;28;20495;-74
2021/01/19 11:16:46;;;;;;;73.88;33.13;;;;;;;-0.50;100.00;97884.63;5054639;28;20114;-73
2021/01/19 11:19:14;;;;;;;57.40;26.38;;;;;;;-0.54;100.00;97885.63;5054319;28;20108;-75
2021/01/19 11:21:42;;;;;;;66.40;30.23;;;;;;;-0.43;100.00;97878.41;5054332;28;20044;-76
2021/01/19 11:24:11;;;;;;;75.07;32.78;;;;;;;-0.22;100.00;97868.31;5053788;28;20041;-75
2021/01/19 11:26:40;;;;;;;69.57;31.48;;;;;;;-0.24;100.00;97872.69;5054679;28;20053;-76
2021/01/19 11:29:08;;;;;;;81.80;36.75;;;;;;;-0.30;100.00;97878.03;5036910;28;20053;-76